Airfield :
LOGIN :

Register | Disclaimer

   EN    FR    IT 

 










Legend :    VFR   Marginal VFR   IFR   Intensive IFR   Very Intensive IFR
Visi :
Ceiling :
>= 8 km
>= 3000ft
5 to 8 km
1000 to 3000 ft
1500m to 5 km
500 to 1000 ft
800 to 1500m
200 to 500 ft
< 800m
< 200 ft
Symbols :   Thunderstorms  Fog  Heavy snow  Heavy precipitations  Wind > 20 kt
SIGMETs :     Misc.  Thunderstorms  Icing  Turbulence  Mountain Waves  Volcanic Ashes






- Airport Elevation : 26 ft
- IATA code : GLA


EGPF - Glasgow

CURRENT METAR :
  • 281850Z AUTO 04007KT 9999 NCD 14/06 Q1025

EXPIRED METARs :
  • 281820Z AUTO 02004KT 9999 NCD 15/06 Q1025
  • 281750Z AUTO VRB02KT 9999 NCD 16/05 Q1025
  • 281720Z AUTO 36003KT 310V040 9999 NCD 17/06 Q1025
  • 281650Z AUTO 02005KT 300V070 9999 NCD 16/05 Q1025
  • 281620Z AUTO 30006KT 280V340 9999 NCD 18/06 Q1025

TAF TAF EGPF
Valid from the 28 at 18:00 until the 29 at 18:00 UTC


281657Z 2818/2918 06007KT 9999 FEW045
BECMG 2908/2911 32010KT
ATIS : +44 141 887 7449



MET'MAP, your aeronautical weather chart ! - Copyright ORBIFLY December 2007 - Disclaimer

ORBIFLY MET'MAP TEAM :

Programming & Development : Alexandra Zaïnal
Original concept : Baudouin d'Aumeries
Technical & hardware support : Manuel Goepfert
Assistance : Marc-Olivier Méhu

Contact : metmap@orbifly.com




SOURCES & CREDITS :

   NOAA